Time;durP1;ratioP1;P1;durP2;ratioP2;P2;SDS_P1;SDS_P2;PMS_P1;PMS_P2;Temp;Humidity;BMP_temperature;BMP_pressure;BME280_temperature;BME280_humidity;BME280_pressure;Samples;Min_cycle;Max_cycle;Signal;HPM_P1;HPM_P2
2022/05/29 00:00:26;;;;;;;116.82;104.72;;;10.70;97.40;;;;;;4974035;28;20123;-80
2022/05/29 00:02:52;;;;;;;117.53;105.55;;;10.70;97.40;;;;;;4974111;28;20057;-80
2022/05/29 00:05:19;;;;;;;116.18;104.50;;;10.70;97.50;;;;;;4974475;28;20091;-81
2022/05/29 00:07:50;;;;;;;115.88;103.93;;;10.70;97.60;;;;;;4973768;28;20142;-80
2022/05/29 00:10:18;;;;;;;117.03;105.00;;;10.70;97.50;;;;;;4972276;28;20062;-80
2022/05/29 00:12:45;;;;;;;117.10;105.22;;;10.70;97.60;;;;;;4974717;28;20142;-80
2022/05/29 00:15:13;;;;;;;116.50;104.53;;;10.70;97.70;;;;;;4974203;28;20170;-80
2022/05/29 00:17:40;;;;;;;117.60;106.00;;;10.70;97.70;;;;;;4989999;28;20163;-80
2022/05/29 00:20:08;;;;;;;117.70;105.82;;;10.70;97.70;;;;;;4974571;28;20504;-80
2022/05/29 00:22:35;;;;;;;116.30;104.80;;;10.70;97.70;;;;;;4990488;28;20150;-80
2022/05/29 00:25:08;;;;;;;116.00;104.50;;;10.70;97.80;;;;;;4990259;28;20172;-80
2022/05/29 00:27:35;;;;;;;117.20;105.38;;;10.70;97.90;;;;;;4989705;28;20075;-80
2022/05/29 00:30:02;;;;;;;116.07;104.45;;;10.80;97.90;;;;;;4973824;28;20487;-80
2022/05/29 00:32:29;;;;;;;114.85;103.53;;;10.80;98.00;;;;;;4974158;28;20071;-80
2022/05/29 00:34:56;;;;;;;115.28;103.88;;;10.80;97.90;;;;;;4973854;28;20130;-80
2022/05/29 00:37:23;;;;;;;116.55;104.75;;;10.70;97.90;;;;;;4988547;28;20142;-80
2022/05/29 00:39:51;;;;;;;116.55;104.72;;;10.70;97.90;;;;;;4989359;28;20407;-80
2022/05/29 00:42:22;;;;;;;116.57;104.97;;;10.70;98.00;;;;;;4987692;28;20461;-80
2022/05/29 00:44:49;;;;;;;117.05;105.38;;;10.80;98.00;;;;;;4973478;28;21027;-80
2022/05/29 00:47:18;;;;;;;118.60;106.63;;;10.80;98.00;;;;;;4972428;28;20043;-80
2022/05/29 00:49:48;;;;;;;117.45;105.47;;;10.80;98.00;;;;;;4988878;28;20545;-80
2022/05/29 00:52:18;;;;;;;117.05;105.43;;;10.80;98.10;;;;;;4973166;28;20691;-80
2022/05/29 00:54:53;;;;;;;120.97;109.22;;;10.70;98.00;;;;;;4989006;28;20056;-80
2022/05/29 00:57:29;;;;;;;122.68;110.40;;;10.80;98.10;;;;;;4972765;28;20514;-80
2022/05/29 01:00:00;;;;;;;117.90;106.38;;;10.70;98.20;;;;;;4972736;28;20458;-80
2022/05/29 01:02:27;;;;;;;117.95;106.03;;;10.70;98.10;;;;;;4973554;28;20067;-80
2022/05/29 01:04:54;;;;;;;117.95;106.20;;;10.70;98.10;;;;;;4989838;28;20047;-80
2022/05/29 01:07:24;;;;;;;122.05;110.40;;;10.70;98.10;;;;;;4989256;28;20051;-80
2022/05/29 01:09:53;;;;;;;119.10;107.15;;;10.70;98.10;;;;;;4989556;28;20171;-80
2022/05/29 01:12:38;;;;;;;122.28;109.85;;;10.70;98.10;;;;;;4988936;28;20061;-80
2022/05/29 01:15:13;;;;;;;118.40;106.47;;;10.70;98.00;;;;;;4971791;28;20126;-80
2022/05/29 01:17:46;;;;;;;126.45;113.47;;;10.70;98.10;;;;;;4972729;28;20047;-80
2022/05/29 01:20:30;;;;;;;121.40;108.72;;;10.70;98.00;;;;;;4989569;28;20065;-81
2022/05/29 01:23:21;;;;;;;118.00;106.00;;;10.70;98.00;;;;;;4973175;28;20445;-80
2022/05/29 01:26:15;;;;;;;118.90;106.50;;;10.60;97.90;;;;;;4973199;28;20087;-80
2022/05/29 01:28:52;;;;;;;117.22;104.75;;;10.60;98.00;;;;;;4973101;28;20055;-80
2022/05/29 01:31:30;;;;;;;117.95;105.80;;;10.60;98.20;;;;;;4973163;28;20134;-80
2022/05/29 01:34:04;;;;;;;117.85;105.60;;;10.60;98.00;;;;;;4973101;28;20442;-80
2022/05/29 01:36:35;;;;;;;118.30;105.68;;;10.60;98.10;;;;;;4973019;28;20051;-81
2022/05/29 01:39:10;;;;;;;117.70;105.18;;;10.60;98.10;;;;;;4972841;28;20085;-80
2022/05/29 01:41:39;;;;;;;117.50;104.87;;;10.60;98.10;;;;;;4988795;28;20588;-80
2022/05/29 01:44:12;;;;;;;118.03;105.60;;;10.60;98.10;;;;;;4972658;28;20331;-80
2022/05/29 01:46:41;;;;;;;124.22;111.53;;;10.60;98.20;;;;;;4971538;28;20524;-80
2022/05/29 01:49:26;;;;;;;119.57;107.20;;;10.50;98.10;;;;;;4972314;28;20055;-80
2022/05/29 01:51:57;;;;;;;118.25;106.00;;;10.50;98.20;;;;;;4972603;28;20054;-80
2022/05/29 01:54:29;;;;;;;117.13;105.03;;;10.50;98.10;;;;;;5005301;28;20491;-80
2022/05/29 01:56:59;;;;;;;119.07;106.43;;;10.50;98.20;;;;;;4972698;28;20130;-80
2022/05/29 01:59:33;;;;;;;117.78;105.57;;;10.50;98.20;;;;;;4988726;28;20597;-80
2022/05/29 02:02:07;;;;;;;119.35;106.63;;;10.50;98.20;;;;;;4972280;28;20090;-80
2022/05/29 02:04:38;;;;;;;117.05;104.95;;;10.50;98.30;;;;;;4972659;28;20125;-80
2022/05/29 02:10:00;;;;;;;115.90;104.10;;;10.50;98.20;;;;;;5004988;28;20064;-80
2022/05/29 02:12:29;;;;;;;117.40;105.25;;;10.40;98.20;;;;;;4988758;28;20062;-80
2022/05/29 02:15:02;;;;;;;117.63;105.45;;;10.40;98.20;;;;;;5004767;28;20082;-80
2022/05/29 02:17:35;;;;;;;117.35;105.05;;;10.40;98.20;;;;;;5004469;28;20099;-80
2022/05/29 02:20:06;;;;;;;119.00;106.72;;;10.40;98.30;;;;;;5002948;28;20082;-80
2022/05/29 02:22:35;;;;;;;118.13;105.90;;;10.40;98.20;;;;;;4987788;28;20138;-80
2022/05/29 02:25:06;;;;;;;118.43;105.93;;;10.40;98.20;;;;;;4988371;28;20522;-80
2022/05/29 02:27:37;;;;;;;117.50;105.10;;;10.40;98.10;;;;;;5004432;28;20057;-80
2022/05/29 02:30:07;;;;;;;118.90;106.57;;;10.40;98.10;;;;;;4972555;28;20134;-80
2022/05/29 02:32:47;;;;;;;119.50;107.03;;;10.40;98.10;;;;;;4972431;28;20142;-80
2022/05/29 02:35:20;;;;;;;116.85;104.78;;;10.40;98.10;;;;;;4988541;28;20118;-80
2022/05/29 02:37:53;;;;;;;118.18;105.82;;;10.40;98.10;;;;;;5004945;28;20055;-80
2022/05/29 02:40:26;;;;;;;118.40;105.72;;;10.40;98.10;;;;;;4971916;28;20480;-80
2022/05/29 02:43:02;;;;;;;118.65;106.05;;;10.40;98.10;;;;;;5004578;28;20051;-80
2022/05/29 02:45:38;;;;;;;117.68;105.35;;;10.40;98.10;;;;;;5004353;28;20055;-80
2022/05/29 02:48:12;;;;;;;117.82;105.63;;;10.30;98.10;;;;;;4971871;28;20462;-80
2022/05/29 02:50:45;;;;;;;116.95;104.88;;;10.30;98.10;;;;;;4971677;28;20411;-79
2022/05/29 02:53:14;;;;;;;117.13;105.13;;;10.30;98.20;;;;;;4970392;28;20107;-80
2022/05/29 02:55:43;;;;;;;117.65;105.10;;;10.40;98.20;;;;;;4988117;28;20051;-80
2022/05/29 02:58:18;;;;;;;118.50;105.90;;;10.30;98.10;;;;;;4971335;28;20051;-80
2022/05/29 03:01:11;;;;;;;117.68;105.40;;;10.30;98.10;;;;;;4974739;28;20059;-80
2022/05/29 03:03:44;;;;;;;117.40;105.18;;;10.30;98.10;;;;;;4975011;28;20443;-80
2022/05/29 03:06:25;;;;;;;118.95;106.65;;;10.30;98.10;;;;;;4991045;28;20582;-80
2022/05/29 03:09:03;;;;;;;118.68;106.47;;;10.30;98.10;;;;;;4990646;28;20070;-80
2022/05/29 03:11:38;;;;;;;119.13;106.72;;;10.30;98.10;;;;;;4974586;28;20051;-80
2022/05/29 03:14:06;;;;;;;;;;;10.30;98.10;;;;;;4975582;28;20102;-80
2022/05/29 03:16:43;;;;;;;119.82;107.47;;;10.30;97.90;;;;;;4974893;28;20312;-80
2022/05/29 03:19:25;;;;;;;116.55;104.43;;;10.30;98.00;;;;;;4991265;28;20082;-80
2022/05/29 03:22:02;;;;;;;118.70;106.43;;;10.30;98.00;;;;;;4990790;28;20556;-80
2022/05/29 03:24:42;;;;;;;119.50;107.07;;;10.40;98.00;;;;;;4974930;28;20055;-79
2022/05/29 03:27:15;;;;;;;118.50;106.25;;;10.40;98.00;;;;;;4988872;28;20083;-80
2022/05/29 03:29:48;;;;;;;117.65;105.55;;;10.40;98.00;;;;;;4974803;28;20134;-80
2022/05/29 03:32:17;;;;;;;115.78;103.93;;;10.40;98.00;;;;;;4976282;28;20102;-80
2022/05/29 03:34:44;;;;;;;117.78;105.72;;;10.40;97.90;;;;;;4974356;28;20070;-79
2022/05/29 03:37:11;;;;;;;120.78;108.13;;;10.40;97.80;;;;;;4990574;28;20078;-80
2022/05/29 03:39:38;;;;;;;117.63;105.43;;;10.40;97.80;;;;;;4974354;28;20144;-80
2022/05/29 03:42:06;;;;;;;118.50;106.45;;;10.40;97.90;;;;;;4974327;28;20146;-80
2022/05/29 03:44:33;;;;;;;121.35;108.93;;;10.40;97.80;;;;;;4974473;28;20062;-80
2022/05/29 03:47:00;;;;;;;118.57;106.85;;;10.50;97.70;;;;;;4974409;28;20051;-80
2022/05/29 03:49:28;;;;;;;117.00;105.15;;;10.50;97.80;;;;;;4990344;28;20051;-80
2022/05/29 03:51:55;;;;;;;117.20;104.88;;;10.50;97.70;;;;;;4974256;28;20106;-80
2022/05/29 03:54:22;;;;;;;115.88;104.28;;;10.50;97.70;;;;;;4990202;28;20102;-80
2022/05/29 03:56:49;;;;;;;116.30;104.80;;;10.50;97.70;;;;;;4974365;28;20051;-80
2022/05/29 03:59:16;;;;;;;116.63;104.95;;;10.50;97.70;;;;;;4989250;28;20085;-80
2022/05/29 04:01:43;;;;;;;115.43;103.63;;;10.50;97.70;;;;;;4974623;28;20055;-80
2022/05/29 04:04:10;;;;;;;117.55;105.35;;;10.50;97.80;;;;;;4990418;28;20578;-80
2022/05/29 04:06:40;;;;;;;115.75;104.05;;;10.60;97.80;;;;;;4990237;28;20051;-80
2022/05/29 04:12:05;;;;;;;115.45;103.70;;;10.50;97.90;;;;;;4989379;28;20525;-80
2022/05/29 04:14:33;;;;;;;116.70;104.80;;;10.60;97.90;;;;;;4973974;28;20138;-80
2022/05/29 04:17:00;;;;;;;118.03;106.07;;;10.60;97.90;;;;;;4990247;28;20536;-80
2022/05/29 04:19:27;;;;;;;118.28;106.15;;;10.60;97.90;;;;;;4974185;28;20043;-80
2022/05/29 04:21:56;;;;;;;117.35;104.97;;;10.60;98.00;;;;;;4989553;28;20062;-80
2022/05/29 04:24:23;;;;;;;115.38;103.63;;;10.60;98.00;;;;;;4973902;28;20130;-80
2022/05/29 04:26:50;;;;;;;115.88;103.90;;;10.60;98.00;;;;;;4990215;28;20094;-80
2022/05/29 04:29:18;;;;;;;115.90;104.22;;;10.60;98.10;;;;;;4973561;28;20489;-80
2022/05/29 04:34:26;;;;;;;117.57;105.80;;;10.60;98.10;;;;;;4973545;28;20055;-80
2022/05/29 04:36:55;;;;;;;117.85;105.97;;;10.60;98.00;;;;;;4973348;28;20525;-80
2022/05/29 04:39:22;;;;;;;117.22;105.40;;;10.60;98.10;;;;;;4973858;28;20055;-80
2022/05/29 04:41:48;;;;;;;114.85;103.32;;;10.60;98.00;;;;;;4989618;28;20155;-80
2022/05/29 04:44:15;;;;;;;118.60;107.05;;;10.60;98.00;;;;;;4973529;28;20063;-80
2022/05/29 04:46:42;;;;;;;118.25;106.50;;;10.60;98.00;;;;;;4989854;28;20426;-80
2022/05/29 04:49:09;;;;;;;115.18;103.82;;;10.60;98.10;;;;;;4973018;28;20059;-80
2022/05/29 04:51:36;;;;;;;115.18;103.68;;;10.60;98.00;;;;;;4973226;28;20545;-80
2022/05/29 04:54:05;;;;;;;115.13;103.72;;;10.60;98.00;;;;;;4973543;28;20425;-80
2022/05/29 04:56:31;;;;;;;115.97;104.40;;;10.70;98.00;;;;;;4989002;28;20138;-83
2022/05/29 04:58:58;;;;;;;116.40;105.07;;;10.70;98.00;;;;;;4972480;28;20051;-80
2022/05/29 05:01:25;;;;;;;117.03;105.53;;;10.70;98.00;;;;;;4989327;28;20569;-81
2022/05/29 05:03:52;;;;;;;123.90;111.43;;;10.70;98.00;;;;;;4971491;28;20054;-81
2022/05/29 05:06:19;;;;;;;126.28;114.15;;;10.70;98.00;;;;;;4988608;28;20102;-81
2022/05/29 05:08:46;;;;;;;120.65;108.63;;;10.70;98.00;;;;;;4988314;28;20055;-79
2022/05/29 05:11:14;;;;;;;117.20;105.32;;;10.70;97.90;;;;;;4988337;28;20062;-80
2022/05/29 05:13:41;;;;;;;118.05;105.85;;;10.70;97.90;;;;;;4974138;28;20057;-78
2022/05/29 05:16:08;;;;;;;116.25;104.47;;;10.70;97.90;;;;;;4991830;28;20053;-78
2022/05/29 05:18:35;;;;;;;124.05;111.95;;;10.70;98.00;;;;;;5008352;28;20129;-80
2022/05/29 05:21:06;;;;;;;118.15;106.05;;;10.70;98.00;;;;;;4991513;28;20137;-80
2022/05/29 05:23:33;;;;;;;116.30;104.63;;;10.70;98.00;;;;;;4991954;28;20165;-80
2022/05/29 05:26:00;;;;;;;124.20;111.97;;;10.80;98.00;;;;;;5008259;28;20134;-78
2022/05/29 05:28:28;;;;;;;116.15;104.60;;;10.80;97.90;;;;;;5008214;28;20055;-78
2022/05/29 05:30:55;;;;;;;117.63;105.45;;;10.80;98.10;;;;;;5008430;28;20051;-80
2022/05/29 05:33:22;;;;;;;116.38;104.55;;;10.80;98.00;;;;;;5008850;28;20524;-78
2022/05/29 05:35:49;;;;;;;115.57;103.88;;;10.80;98.10;;;;;;5009007;28;20055;-80
2022/05/29 05:38:16;;;;;;;119.88;107.82;;;10.80;98.10;;;;;;4983674;28;20079;-79
2022/05/29 05:40:43;;;;;;;117.75;105.85;;;10.90;98.10;;;;;;4988670;28;20059;-77
2022/05/29 05:43:10;;;;;;;117.32;105.63;;;10.80;98.00;;;;;;4988057;28;20069;-78
2022/05/29 05:45:40;;;;;;;119.70;107.78;;;10.90;98.00;;;;;;4988251;28;20126;-80
2022/05/29 05:48:08;;;;;;;117.10;105.60;;;10.90;98.10;;;;;;4971940;28;20137;-77
2022/05/29 05:50:36;;;;;;;118.53;106.50;;;10.90;98.00;;;;;;4972195;28;20091;-80
2022/05/29 05:53:03;;;;;;;119.63;107.57;;;10.90;98.00;;;;;;4970732;28;20047;-82
2022/05/29 05:55:30;;;;;;;120.15;107.65;;;11.00;98.10;;;;;;4970982;28;20524;-81
2022/05/29 05:57:57;;;;;;;117.93;105.65;;;11.00;98.10;;;;;;4987279;28;20407;-81
2022/05/29 06:00:25;;;;;;;117.25;104.97;;;10.90;98.20;;;;;;4995096;28;20082;-81
2022/05/29 06:02:53;;;;;;;118.93;106.82;;;11.00;98.30;;;;;;4979440;28;20059;-82
2022/05/29 06:05:20;;;;;;;119.72;107.78;;;11.00;98.30;;;;;;4979878;28;20552;-85
2022/05/29 06:07:47;;;;;;;118.18;106.20;;;11.00;98.30;;;;;;4980185;28;20087;-79
2022/05/29 06:10:14;;;;;;;120.00;107.97;;;11.10;98.30;;;;;;4995186;28;20057;-81
2022/05/29 06:12:41;;;;;;;117.65;105.88;;;11.10;98.30;;;;;;4977714;28;20055;-79
2022/05/29 06:15:09;;;;;;;118.10;106.22;;;11.10;98.20;;;;;;4981211;28;20122;-80
2022/05/29 06:17:36;;;;;;;119.97;107.65;;;11.10;98.30;;;;;;4971520;28;20055;-81
2022/05/29 06:20:06;;;;;;;119.13;106.85;;;11.10;98.30;;;;;;4954483;28;20202;-80
2022/05/29 06:22:36;;;;;;;118.70;106.32;;;11.10;98.20;;;;;;4970723;28;20051;-80
2022/05/29 06:25:04;;;;;;;118.45;106.35;;;11.10;98.20;;;;;;4971748;28;20106;-84
2022/05/29 06:27:31;;;;;;;115.72;104.22;;;11.10;98.20;;;;;;4971745;28;20058;-87
2022/05/29 06:29:58;;;;;;;119.22;107.13;;;11.10;98.10;;;;;;4971267;28;20044;-84
2022/05/29 06:32:25;;;;;;;119.20;106.70;;;11.20;98.10;;;;;;4954167;28;20536;-84
2022/05/29 06:34:51;;;;;;;118.53;106.18;;;11.20;98.20;;;;;;4955684;28;20055;-83
2022/05/29 06:37:20;;;;;;;118.90;106.28;;;11.20;98.10;;;;;;4974262;28;20134;-86
2022/05/29 06:39:47;;;;;;;115.78;104.00;;;11.20;98.20;;;;;;4990958;28;20075;-84
2022/05/29 06:42:15;;;;;;;118.10;105.93;;;11.30;98.10;;;;;;4991416;28;20142;-83
2022/05/29 06:44:42;;;;;;;117.38;105.85;;;11.30;98.00;;;;;;4973638;28;20055;-83
2022/05/29 06:47:09;;;;;;;123.93;111.32;;;11.30;97.90;;;;;;4971881;28;20059;-82
2022/05/29 06:49:37;;;;;;;119.18;106.95;;;11.30;97.80;;;;;;4973868;28;20066;-81
2022/05/29 06:52:07;;;;;;;117.50;105.55;;;11.30;97.70;;;;;;4987257;28;20125;-82
2022/05/29 06:54:36;;;;;;;115.80;104.20;;;11.30;97.80;;;;;;4995125;28;20545;-82
2022/05/29 06:57:04;;;;;;;118.10;106.18;;;11.30;97.80;;;;;;4994418;28;20051;-86
2022/05/29 06:59:31;;;;;;;115.78;104.00;;;11.30;97.80;;;;;;4994634;28;20054;-84
2022/05/29 07:07:27;;;;;;;117.82;105.80;;;11.30;97.80;;;;;;4992637;28;20513;-81
2022/05/29 07:09:55;;;;;;;117.25;105.43;;;11.30;97.80;;;;;;5009050;28;20047;-81
2022/05/29 07:12:26;;;;;;;116.47;104.43;;;11.30;98.10;;;;;;4994031;28;20051;-84
2022/05/29 07:14:57;;;;;;;117.03;104.88;;;11.30;97.90;;;;;;4994369;28;20054;-82
2022/05/29 07:17:26;;;;;;;119.22;107.32;;;11.40;97.90;;;;;;4993517;28;20137;-83
2022/05/29 07:19:53;;;;;;;116.82;105.18;;;11.40;97.80;;;;;;4994066;28;20039;-83
2022/05/29 07:22:20;;;;;;;117.47;105.45;;;11.40;97.80;;;;;;4975648;28;20063;-82
2022/05/29 07:24:48;;;;;;;116.72;104.57;;;11.40;97.90;;;;;;4974574;28;20062;-85
2022/05/29 07:27:16;;;;;;;117.93;105.43;;;11.40;97.80;;;;;;4974518;28;20122;-83
2022/05/29 07:29:43;;;;;;;118.35;106.05;;;11.40;97.80;;;;;;4974491;28;20086;-83
2022/05/29 07:32:11;;;;;;;116.82;104.78;;;11.50;97.70;;;;;;4974402;28;20055;-82
2022/05/29 07:34:38;;;;;;;117.55;105.82;;;11.50;97.80;;;;;;4974730;28;20150;-81
2022/05/29 07:37:07;;;;;;;118.22;106.10;;;11.50;97.70;;;;;;4990068;28;20138;-83
2022/05/29 07:39:37;;;;;;;117.93;106.22;;;11.50;97.70;;;;;;4973605;28;20111;-82
2022/05/29 07:44:52;;;;;;;120.22;107.72;;;11.60;97.60;;;;;;4997270;28;20062;-90
2022/05/29 07:47:19;;;;;;;117.57;105.57;;;11.60;97.60;;;;;;4980564;28;20511;-89
2022/05/29 07:49:46;;;;;;;118.65;106.60;;;11.60;97.60;;;;;;4985343;28;20059;-86
2022/05/29 07:52:13;;;;;;;118.78;106.78;;;11.60;97.70;;;;;;4982113;28;20062;-83
2022/05/29 07:54:40;;;;;;;122.72;110.53;;;11.60;97.60;;;;;;4990780;28;20141;-79
2022/05/29 07:57:07;;;;;;;121.35;108.97;;;11.70;97.70;;;;;;4982854;28;20054;-84
2022/05/29 07:59:34;;;;;;;120.25;107.82;;;11.70;97.60;;;;;;4981129;28;20603;-86
2022/05/29 08:02:03;;;;;;;119.93;107.53;;;11.70;97.60;;;;;;4988422;28;20062;-82
2022/05/29 08:04:30;;;;;;;118.65;106.57;;;11.80;97.40;;;;;;4991837;28;20218;-82
2022/05/29 08:06:57;;;;;;;118.25;106.43;;;11.80;97.20;;;;;;5008668;28;20274;-82
2022/05/29 08:09:24;;;;;;;117.00;105.20;;;11.80;97.00;;;;;;4991017;28;20151;-84
2022/05/29 08:11:51;;;;;;;118.50;106.13;;;11.80;96.70;;;;;;4981914;28;20580;-83
2022/05/29 08:14:18;;;;;;;116.55;104.78;;;11.90;96.60;;;;;;4980485;28;20055;-86
2022/05/29 08:16:45;;;;;;;117.82;106.05;;;11.90;96.40;;;;;;4983309;28;20051;-88
2022/05/29 08:19:13;;;;;;;115.78;103.90;;;11.90;96.30;;;;;;4976463;28;21105;-86
2022/05/29 08:21:41;;;;;;;117.45;105.75;;;11.90;96.10;;;;;;4982278;28;20217;-84
2022/05/29 08:32:22;;;;;;;115.70;103.87;;;12.00;95.70;;;;;;5005343;28;20053;-83
2022/05/29 08:34:50;;;;;;;115.68;104.07;;;12.00;95.50;;;;;;4979732;28;20577;-85
2022/05/29 08:37:17;;;;;;;117.38;105.63;;;12.00;95.50;;;;;;4983644;28;20527;-86
2022/05/29 08:39:44;;;;;;;116.93;105.15;;;12.00;95.30;;;;;;4983746;28;20126;-86
2022/05/29 08:42:14;;;;;;;116.30;104.80;;;12.00;95.10;;;;;;4982548;28;20051;-87
2022/05/29 08:44:46;;;;;;;117.30;105.82;;;12.00;95.20;;;;;;4975180;28;20334;-85
2022/05/29 08:47:14;;;;;;;121.65;109.28;;;12.00;95.10;;;;;;4981330;28;20138;-83
2022/05/29 08:49:45;;;;;;;115.65;104.30;;;12.00;95.30;;;;;;4982672;28;20058;-84
2022/05/29 08:52:31;;;;;;;116.38;104.88;;;12.00;94.80;;;;;;4980261;28;20065;-84
2022/05/29 08:55:03;;;;;;;116.22;105.15;;;12.00;94.80;;;;;;5006125;28;20112;-86
2022/05/29 08:58:03;;;;;;;115.65;104.07;;;12.00;94.90;;;;;;4991081;28;20054;-83
2022/05/29 09:00:44;;;;;;;115.63;104.20;;;12.00;95.00;;;;;;4983040;28;20960;-85
2022/05/29 09:03:46;;;;;;;115.78;104.50;;;12.00;94.70;;;;;;4989568;28;20118;-86
2022/05/29 09:06:19;;;;;;;115.13;103.95;;;12.00;94.80;;;;;;4984357;28;20059;-82
2022/05/29 09:09:01;;;;;;;116.22;104.88;;;12.10;94.70;;;;;;4996519;28;20051;-85
2022/05/29 09:11:35;;;;;;;120.80;109.20;;;12.10;94.80;;;;;;4974830;28;20047;-81
2022/05/29 09:14:09;;;;;;;118.43;106.95;;;12.10;94.80;;;;;;4984490;28;20162;-82
2022/05/29 09:16:43;;;;;;;119.55;107.38;;;12.10;94.80;;;;;;5008519;28;20425;-78
2022/05/29 09:19:17;;;;;;;118.40;106.80;;;12.10;95.00;;;;;;4991741;28;20050;-84
2022/05/29 09:21:53;;;;;;;117.55;106.13;;;12.10;95.10;;;;;;4990515;28;20141;-79
2022/05/29 09:24:44;;;;;;;115.35;104.05;;;12.10;95.10;;;;;;4993155;28;20063;-87
2022/05/29 09:27:11;;;;;;;119.80;108.30;;;12.20;95.20;;;;;;4982798;28;20051;-82
2022/05/29 09:29:38;;;;;;;118.60;107.00;;;12.20;95.30;;;;;;4970191;28;20499;-82
2022/05/29 09:32:10;;;;;;;117.68;106.18;;;12.20;95.00;;;;;;4972462;28;20510;-83
2022/05/29 09:34:37;;;;;;;123.60;111.57;;;12.20;94.90;;;;;;4988079;28;20138;-81
2022/05/29 09:37:14;;;;;;;121.03;109.65;;;12.30;94.80;;;;;;4972453;28;20055;-80
2022/05/29 09:39:46;;;;;;;122.13;110.53;;;12.30;94.80;;;;;;4969656;28;20067;-82
2022/05/29 09:42:18;;;;;;;118.60;107.07;;;12.30;94.60;;;;;;4994056;28;20077;-84
2022/05/29 09:45:06;;;;;;;117.03;105.80;;;12.30;94.50;;;;;;4971435;28;20521;-84
2022/05/29 09:50:16;;;;;;;119.45;107.72;;;12.40;94.50;;;;;;4962139;28;20536;-80
2022/05/29 09:52:44;;;;;;;119.35;107.72;;;12.40;94.50;;;;;;4971570;28;20048;-86
2022/05/29 09:55:24;;;;;;;118.25;106.65;;;12.40;94.40;;;;;;4971758;28;20052;-82
2022/05/29 09:57:53;;;;;;;117.90;106.38;;;12.40;94.60;;;;;;4997543;28;20082;-83
2022/05/29 10:00:28;;;;;;;115.72;104.43;;;12.50;94.70;;;;;;4991316;28;20141;-80
2022/05/29 10:02:56;;;;;;;118.63;107.03;;;12.50;94.90;;;;;;4978542;28;20142;-79
2022/05/29 10:05:26;;;;;;;116.85;105.47;;;12.50;95.00;;;;;;4986896;28;20059;-78
2022/05/29 10:07:56;;;;;;;119.47;107.68;;;12.60;95.00;;;;;;4987614;28;20131;-79
2022/05/29 10:10:33;;;;;;;118.47;107.28;;;12.60;94.90;;;;;;4973018;28;20154;-80
2022/05/29 10:13:02;;;;;;;120.53;109.03;;;12.60;94.80;;;;;;4988952;28;20051;-79
2022/05/29 10:15:38;;;;;;;119.63;108.13;;;12.70;94.70;;;;;;4970178;28;20055;-85
2022/05/29 10:18:13;;;;;;;119.25;107.75;;;12.70;94.60;;;;;;4970066;28;20582;-81
2022/05/29 10:20:42;;;;;;;118.95;107.40;;;12.70;94.70;;;;;;4986343;28;20516;-79
2022/05/29 10:23:11;;;;;;;117.82;106.25;;;12.70;94.60;;;;;;4986784;28;20138;-77
2022/05/29 10:25:53;;;;;;;118.30;107.00;;;12.60;94.60;;;;;;4989706;28;20047;-77
2022/05/29 10:28:31;;;;;;;116.53;105.53;;;12.70;94.90;;;;;;4975163;28;20059;-76
2022/05/29 10:31:01;;;;;;;115.65;104.43;;;12.70;95.00;;;;;;4976824;28;20553;-81
2022/05/29 10:33:30;;;;;;;114.22;103.22;;;12.70;95.00;;;;;;4966693;28;20055;-79
2022/05/29 10:36:02;;;;;;;118.95;107.50;;;12.70;94.80;;;;;;4972071;28;20043;-84
2022/05/29 10:38:30;;;;;;;114.50;103.82;;;12.70;94.70;;;;;;4996909;28;20055;-78
2022/05/29 10:41:00;;;;;;;116.15;105.07;;;12.70;94.60;;;;;;4988440;28;20137;-80
2022/05/29 10:43:41;;;;;;;117.15;106.05;;;12.70;94.20;;;;;;4987344;28;20058;-81
2022/05/29 10:46:18;;;;;;;118.38;107.00;;;12.70;94.10;;;;;;4971401;28;20482;-79
2022/05/29 10:49:17;;;;;;;117.65;106.28;;;12.70;93.90;;;;;;4971388;28;20131;-82
2022/05/29 10:52:13;;;;;;;115.10;103.80;;;12.70;94.00;;;;;;4971862;28;20079;-76
2022/05/29 10:55:13;;;;;;;116.57;105.55;;;12.70;93.90;;;;;;4968423;28;20058;-75
2022/05/29 10:58:29;;;;;;;115.13;104.20;;;12.70;93.90;;;;;;4973078;28;20062;-78
2022/05/29 11:03:17;;;;;;;115.15;104.03;;;12.70;93.50;;;;;;4957877;28;20051;-77
2022/05/29 11:04:16;;;;;;;114.40;103.35;;;12.70;93.50;;;;;;4978889;28;20063;-76
2022/05/29 11:07:13;;;;;;;115.47;104.53;;;12.70;93.40;;;;;;4965715;28;20055;-77
2022/05/29 11:10:03;;;;;;;114.50;103.55;;;12.70;93.40;;;;;;4970549;28;20055;-76
2022/05/29 11:12:41;;;;;;;115.38;104.57;;;12.70;93.30;;;;;;4968432;28;20099;-76
2022/05/29 11:15:24;;;;;;;121.28;110.13;;;12.80;93.20;;;;;;4974940;28;20051;-76
2022/05/29 11:18:10;;;;;;;118.35;106.97;;;12.80;93.30;;;;;;4970891;28;20418;-77
2022/05/29 11:20:47;;;;;;;116.00;104.78;;;12.80;93.20;;;;;;4954065;28;20126;-78
2022/05/29 11:23:30;;;;;;;116.10;104.68;;;12.90;93.30;;;;;;4990018;28;20451;-74
2022/05/29 11:26:06;;;;;;;117.72;106.47;;;12.90;93.30;;;;;;4995761;28;20050;-76
2022/05/29 11:29:00;;;;;;;118.88;107.40;;;12.90;93.30;;;;;;4969439;28;20054;-74
2022/05/29 11:31:44;;;;;;;118.55;107.03;;;12.90;93.20;;;;;;4969342;28;20059;-74
2022/05/29 11:34:26;;;;;;;117.38;106.32;;;12.90;93.20;;;;;;4977602;28;20834;-77
2022/05/29 11:37:13;;;;;;;116.82;105.35;;;13.00;93.10;;;;;;4971318;28;20055;-78
2022/05/29 11:39:43;;;;;;;119.25;107.70;;;13.00;92.90;;;;;;5004520;28;20047;-79
2022/05/29 11:42:17;;;;;;;121.90;109.97;;;12.90;93.00;;;;;;4971905;28;20605;-82
2022/05/29 11:44:51;;;;;;;120.57;108.70;;;12.90;93.20;;;;;;4975296;28;20141;-81
2022/05/29 11:53:11;;;;;;;115.20;104.10;;;13.00;93.20;;;;;;4973377;28;20073;-79
2022/05/29 11:55:41;;;;;;;120.70;109.35;;;13.10;93.10;;;;;;4972316;28;20047;-79
2022/05/29 11:58:14;;;;;;;118.95;107.43;;;13.10;92.90;;;;;;4987835;28;20052;-79
2022/05/29 12:00:48;;;;;;;124.05;112.35;;;13.10;92.60;;;;;;5001391;28;20533;-79
2022/05/29 12:03:23;;;;;;;118.30;106.90;;;13.20;92.30;;;;;;4985504;28;20391;-80
2022/05/29 12:05:58;;;;;;;124.57;111.60;;;13.20;92.40;;;;;;4991014;28;20106;-81
2022/05/29 12:08:30;;;;;;;120.50;108.38;;;13.10;92.30;;;;;;4977692;28;20047;-79
2022/05/29 12:11:07;;;;;;;118.20;106.63;;;13.10;92.60;;;;;;4979135;28;20604;-80
2022/05/29 12:13:38;;;;;;;119.25;107.63;;;13.00;92.70;;;;;;5010282;28;20051;-79
2022/05/29 12:16:11;;;;;;;117.78;106.25;;;13.00;92.60;;;;;;4978312;28;20142;-79
2022/05/29 12:18:46;;;;;;;116.90;105.85;;;13.00;92.50;;;;;;4978890;28;20058;-79
2022/05/29 12:21:15;;;;;;;;;;;13.00;92.60;;;;;;4982239;28;20133;-79
2022/05/29 12:23:47;;;;;;;116.88;105.43;;;13.00;92.80;;;;;;5008083;28;19926;-79
2022/05/29 12:26:19;;;;;;;117.45;105.88;;;13.00;92.80;;;;;;4982669;28;20555;-79
2022/05/29 12:28:52;;;;;;;118.45;106.65;;;13.00;93.00;;;;;;4977902;28;20141;-79
2022/05/29 12:31:23;;;;;;;116.32;104.90;;;13.00;93.20;;;;;;4979144;28;20062;-80
2022/05/29 12:33:52;;;;;;;119.28;107.88;;;13.00;93.10;;;;;;4974009;28;20134;-80
2022/05/29 12:36:26;;;;;;;115.80;104.50;;;13.00;93.00;;;;;;4973500;28;20063;-81
2022/05/29 12:39:04;;;;;;;115.32;104.10;;;13.00;92.90;;;;;;4990787;28;20145;-80
2022/05/29 12:41:58;;;;;;;116.43;104.93;;;13.00;92.90;;;;;;4974374;28;20057;-81
2022/05/29 12:44:50;;;;;;;116.72;105.85;;;13.10;93.10;;;;;;4990856;28;20558;-80
2022/05/29 12:47:52;;;;;;;119.03;107.13;;;13.10;93.00;;;;;;4990327;28;20126;-81
2022/05/29 12:50:33;;;;;;;116.82;105.30;;;13.10;92.60;;;;;;4990441;28;20091;-81
2022/05/29 12:53:28;;;;;;;118.65;107.57;;;13.10;92.60;;;;;;4974292;28;20055;-80
2022/05/29 12:56:19;;;;;;;118.13;106.70;;;13.10;92.90;;;;;;4990878;28;20059;-80
2022/05/29 12:59:11;;;;;;;117.57;105.95;;;13.20;92.50;;;;;;4974271;28;20139;-81
2022/05/29 13:01:56;;;;;;;117.50;105.60;;;13.20;92.40;;;;;;4990517;28;20146;-81
2022/05/29 13:04:57;;;;;;;120.38;108.60;;;13.20;92.40;;;;;;4975144;28;20143;-79
2022/05/29 13:07:30;;;;;;;117.05;105.47;;;13.20;92.20;;;;;;4943984;28;20077;-79